Islesford, ME

11:21 AM EST on December 21, 2014 (GMT -0500)
Seawall | Change Station
CLOSE
Current Station
Personal Weather Station
Location: Southwest Harbor, ME
Elevation: 49 ft
Nearby Weather Stations

Elev 49 ft 44.25 °N, 68.29 °W | Updated 5 seconds ago

Overcast
Overcast
36.0 °F
Feels Like 36 °F
N
0.0
Wind Variable Wind from ENE
Gusts 5.0 mph

Today
High -- | Low -- °F
--% Chance of Precip.
Yesterday
High -- | Low -- °F
Precip. -- in
7:05 AM 3:56 PM
Waning Crescent, 0% visible
Pressure 30.34 in
Visibility 10.0 miles
Clouds Overcast 4500 ft
Windchill 36 °F
Dew Point 29 °F
Humidity 75%
Rainfall 0.00 in
Snow Depth Not available.
UV 1 out of 12
Pollen .10 out of 12
Air Quality Not available.
Flu Activity Not available.
METAR KBHB 211615Z AUTO 36003KT 10SM OVC045 01/M02 A3034 RMK AO1

More Conditions Fewer Conditions

Pressure 30.34 in
Visibility 10.0 miles
Clouds Overcast 4500 ft
Windchill 36 °F
Dew Point 29 °F
Humidity 75%
Rainfall 0.00 in
Snow Depth Not available.
UV 1 out of 12
Pollen .10 out of 12
Air Quality Not available.
Flu Activity Not available.
METAR KBHB 211615Z AUTO 36003KT 10SM OVC045 01/M02 A3034 RMK AO1

More Conditions Fewer Conditions

10-Day Weather Forecast

Almanac

Astronomy

Dec. 21, 2014 Rise Set
Actual Time
Civil Twilight
Nautical Twilight
Astronomical Twilight
Moon
Length of Visible Light
Length of Day
Tomorrow will be .
, % of the Moon is Illuminated

Today's Extremes

State Highs State Lows

Community

WunderPhotos

Upload Photos

1,779,425 photos uploaded!

WunderBlogs® & News

Nearby

Air Quality

  Air Quality AQ Index Pollutant
Not available.

Snow Depth

Station Depth Elevation

Earthquake Activity

City Distance Mag. Time & Date
Minimum magnitude displayed is 2.5.

Coastal Water Temperatures

Place Temperature

Nearby Weather Stations